createdAt,value
2024-02-01T00:00:22.435Z,70.05
2024-02-01T00:02:49.207Z,70.16
2024-02-01T00:05:16.211Z,70.04
2024-02-01T00:07:43.638Z,70.12
2024-02-01T00:10:10.457Z,70.03
2024-02-01T00:12:37.097Z,70.41
2024-02-01T00:15:03.954Z,70.39
2024-02-01T00:17:31.680Z,69.99
2024-02-01T00:19:58.405Z,70.19
2024-02-01T00:22:31.002Z,70.20
2024-02-01T00:25:01.717Z,70.12
2024-02-01T00:27:29.496Z,70.25
2024-02-01T00:29:56.366Z,70.36
2024-02-01T00:32:22.988Z,70.52
2024-02-01T00:34:49.820Z,70.66
2024-02-01T00:37:16.555Z,70.92
2024-02-01T00:39:43.461Z,70.97
2024-02-01T00:42:10.049Z,71.22
2024-02-01T00:44:36.800Z,71.29
2024-02-01T00:47:03.596Z,71.48
2024-02-01T00:49:30.299Z,71.53
2024-02-01T00:51:59.147Z,71.71
2024-02-01T00:54:25.976Z,71.65
2024-02-01T00:56:52.549Z,71.94
2024-02-01T00:59:19.360Z,72.04
2024-02-01T01:01:46.112Z,72.23
2024-02-01T01:04:17.293Z,72.28
2024-02-01T01:06:44.282Z,72.43
2024-02-01T01:09:11.210Z,72.40
2024-02-01T01:11:38.909Z,72.25
2024-02-01T01:14:06.106Z,72.14
2024-02-01T01:16:32.782Z,72.16
2024-02-01T01:19:00.058Z,71.73
2024-02-01T01:21:29.151Z,71.76
2024-02-01T01:23:55.894Z,71.90
2024-02-01T01:26:24.053Z,71.96
2024-02-01T01:28:50.833Z,71.28
2024-02-01T01:31:17.332Z,71.08
2024-02-01T01:33:44.091Z,71.46
2024-02-01T01:36:10.916Z,71.05
2024-02-01T01:38:38.529Z,71.43
2024-02-01T01:41:05.996Z,71.02
2024-02-01T01:43:32.536Z,70.38
2024-02-01T01:46:06.007Z,70.07
2024-02-01T01:48:34.856Z,70.28
2024-02-01T01:51:02.051Z,69.87
2024-02-01T01:53:31.321Z,68.72
2024-02-01T01:55:57.964Z,67.97
2024-02-01T01:58:28.865Z,68.14
2024-02-01T02:00:57.301Z,67.57
2024-02-01T02:03:28.612Z,67.59
2024-02-01T02:05:58.480Z,66.86
2024-02-01T02:08:25.718Z,67.05
2024-02-01T02:10:53.232Z,66.74
2024-02-01T02:13:19.758Z,66.74
2024-02-01T02:15:46.306Z,66.41
2024-02-01T02:18:13.514Z,66.68
2024-02-01T02:20:43.646Z,67.07
2024-02-01T02:23:12.577Z,67.36
2024-02-01T02:25:40.036Z,68.01
2024-02-01T02:28:06.899Z,68.21
2024-02-01T02:30:34.629Z,68.60
2024-02-01T02:33:02.567Z,68.78
2024-02-01T02:35:29.579Z,68.42
2024-02-01T02:37:56.268Z,68.92
2024-02-01T02:40:24.018Z,68.52
2024-02-01T02:42:51.410Z,68.55
2024-02-01T02:45:18.714Z,68.39
2024-02-01T02:47:47.900Z,68.58
2024-02-01T02:50:14.924Z,68.40
2024-02-01T02:52:44.182Z,68.22
2024-02-01T02:55:11.211Z,68.38
2024-02-01T02:57:38.170Z,68.31
2024-02-01T03:00:06.951Z,68.06
2024-02-01T03:02:34.187Z,67.70
2024-02-01T03:05:02.310Z,67.80
2024-02-01T03:07:29.272Z,67.93
2024-02-01T03:09:55.891Z,67.61
2024-02-01T03:12:22.548Z,67.70
2024-02-01T03:14:51.796Z,67.77
2024-02-01T03:17:21.787Z,67.62
2024-02-01T03:19:52.647Z,67.86
2024-02-01T03:22:26.342Z,67.50
2024-02-01T03:25:00.588Z,67.97
2024-02-01T03:27:28.091Z,68.22
2024-02-01T03:29:54.620Z,68.40
2024-02-01T03:32:21.266Z,68.36
2024-02-01T03:34:47.817Z,68.13
2024-02-01T03:37:16.385Z,67.97
2024-02-01T03:39:43.399Z,67.89
2024-02-01T03:42:10.377Z,67.72
2024-02-01T03:44:41.657Z,67.69
2024-02-01T03:47:11.178Z,67.78
2024-02-01T03:49:41.921Z,68.15
2024-02-01T03:52:08.895Z,67.81
2024-02-01T03:54:37.098Z,67.61
2024-02-01T03:57:03.822Z,67.81
2024-02-01T03:59:31.469Z,67.76
2024-02-01T04:02:05.173Z,67.40
2024-02-01T04:04:32.552Z,67.48
2024-02-01T04:06:59.460Z,67.67
2024-02-01T04:09:26.368Z,67.49
2024-02-01T04:11:52.897Z,67.52
2024-02-01T04:14:20.067Z,67.85
2024-02-01T04:16:48.538Z,68.20
2024-02-01T04:19:15.629Z,68.82
2024-02-01T04:21:45.635Z,68.71
2024-02-01T04:24:12.704Z,68.86
2024-02-01T04:26:39.895Z,68.90
2024-02-01T04:29:06.540Z,69.35
2024-02-01T04:31:33.202Z,69.25
2024-02-01T04:34:01.724Z,69.23
2024-02-01T04:36:29.388Z,69.65
2024-02-01T04:38:56.609Z,69.51
2024-02-01T04:41:23.247Z,69.63
2024-02-01T04:43:50.090Z,69.65
2024-02-01T04:46:16.653Z,70.16
2024-02-01T04:48:43.363Z,70.32
2024-02-01T04:51:10.283Z,70.38
2024-02-01T04:53:39.838Z,71.08
2024-02-01T04:56:06.678Z,71.00
2024-02-01T04:58:33.148Z,71.11
2024-02-01T05:01:00.013Z,71.63
2024-02-01T05:03:29.686Z,71.85
2024-02-01T05:06:01.737Z,72.07
2024-02-01T05:08:28.566Z,72.36
2024-02-01T05:10:58.549Z,72.29
2024-02-01T05:13:25.212Z,72.77
2024-02-01T05:15:51.779Z,72.95
2024-02-01T05:18:18.482Z,73.09
2024-02-01T05:20:45.235Z,73.33
2024-02-01T05:23:11.776Z,73.45
2024-02-01T05:25:41.673Z,74.02
2024-02-01T05:28:11.552Z,73.61
2024-02-01T05:30:45.679Z,74.36
2024-02-01T05:33:12.552Z,74.64
2024-02-01T05:35:39.202Z,75.02
2024-02-01T05:38:07.470Z,75.52
2024-02-01T05:40:36.583Z,75.70
2024-02-01T05:43:03.197Z,76.22
2024-02-01T05:45:30.967Z,76.35
2024-02-01T05:47:59.045Z,76.90
2024-02-01T05:50:26.137Z,76.90
2024-02-01T05:52:52.776Z,77.52
2024-02-01T05:55:20.444Z,77.85
2024-02-01T05:57:46.928Z,77.78
2024-02-01T06:00:14.675Z,78.15
2024-02-01T06:02:41.447Z,77.95
2024-02-01T06:05:09.041Z,77.57
2024-02-01T06:07:35.979Z,77.95
2024-02-01T06:10:02.812Z,78.26
2024-02-01T06:12:34.304Z,78.16
2024-02-01T06:15:02.853Z,78.21
2024-02-01T06:17:29.771Z,78.52
2024-02-01T06:19:57.198Z,78.71
2024-02-01T06:22:25.700Z,79.04
2024-02-01T06:24:52.217Z,78.93
2024-02-01T06:27:18.772Z,79.08
2024-02-01T06:29:45.415Z,79.14
2024-02-01T06:32:22.105Z,79.17
2024-02-01T06:35:07.028Z,79.32
2024-02-01T06:37:36.906Z,79.31
2024-02-01T06:40:22.859Z,79.23
2024-02-01T06:43:08.161Z,79.31
2024-02-01T06:45:43.817Z,79.17
2024-02-01T06:48:12.716Z,79.47
2024-02-01T06:50:55.758Z,79.50
2024-02-01T06:53:25.274Z,79.16
2024-02-01T06:56:08.328Z,79.00
2024-02-01T06:58:49.597Z,79.09
2024-02-01T07:01:26.168Z,79.17
2024-02-01T07:03:58.965Z,78.93
2024-02-01T07:06:35.251Z,78.99
2024-02-01T07:09:25.443Z,79.34
2024-02-01T07:12:01.544Z,79.07
2024-02-01T07:14:37.981Z,79.02
2024-02-01T07:17:25.027Z,79.01
2024-02-01T07:19:54.507Z,79.19
2024-02-01T07:22:36.761Z,79.20
2024-02-01T07:25:12.062Z,79.01
2024-02-01T07:27:58.536Z,79.14
2024-02-01T07:30:43.826Z,78.99
2024-02-01T07:33:29.030Z,79.27
2024-02-01T07:36:14.131Z,78.76
2024-02-01T07:38:59.769Z,78.55
2024-02-01T07:41:44.993Z,78.78
2024-02-01T07:44:30.419Z,78.92
2024-02-01T07:47:15.803Z,79.19
2024-02-01T07:50:01.203Z,79.52
2024-02-01T07:52:47.017Z,78.91
2024-02-01T07:55:31.993Z,78.77
2024-02-01T07:58:00.410Z,79.18
2024-02-01T08:00:34.652Z,79.28
2024-02-01T08:03:13.444Z,79.19
2024-02-01T08:05:59.623Z,79.17
2024-02-01T08:08:26.324Z,79.16
2024-02-01T08:10:58.745Z,79.04
2024-02-01T08:13:26.217Z,79.13
2024-02-01T08:15:57.406Z,79.61
2024-02-01T08:18:27.371Z,79.24
2024-02-01T08:20:55.047Z,79.20
2024-02-01T08:23:21.729Z,78.59
2024-02-01T08:25:49.528Z,78.82
2024-02-01T08:28:16.841Z,78.83
2024-02-01T08:30:46.498Z,78.46
2024-02-01T08:33:17.235Z,78.89
2024-02-01T08:35:44.955Z,78.90
2024-02-01T08:38:12.303Z,78.41
2024-02-01T08:40:41.855Z,78.52
2024-02-01T08:43:11.351Z,78.66
2024-02-01T08:45:39.351Z,78.69
2024-02-01T08:48:09.713Z,78.70
2024-02-01T08:50:50.944Z,78.65
2024-02-01T08:53:19.492Z,78.38
2024-02-01T08:55:46.860Z,78.52
2024-02-01T08:58:13.836Z,78.04
2024-02-01T09:00:44.062Z,77.83
2024-02-01T09:03:17.739Z,77.89
2024-02-01T09:05:46.512Z,77.73
2024-02-01T09:08:18.006Z,77.58
2024-02-01T09:10:58.792Z,77.87
2024-02-01T09:13:28.619Z,77.69
2024-02-01T09:15:56.821Z,77.38
2024-02-01T09:18:24.910Z,77.37
2024-02-01T09:20:52.255Z,77.40
2024-02-01T09:23:18.928Z,77.39
2024-02-01T09:25:45.648Z,77.68
2024-02-01T09:28:16.236Z,77.76
2024-02-01T09:30:47.005Z,77.71
2024-02-01T09:33:22.028Z,78.01
2024-02-01T09:35:49.407Z,77.83
2024-02-01T09:38:18.894Z,77.75
2024-02-01T09:40:47.021Z,78.11
2024-02-01T09:43:26.053Z,77.94
2024-02-01T09:45:55.619Z,77.84
2024-02-01T09:48:23.178Z,78.06
2024-02-01T09:50:54.437Z,78.09
2024-02-01T09:53:26.528Z,78.31
2024-02-01T09:56:01.820Z,78.44
2024-02-01T09:58:29.340Z,78.37
2024-02-01T10:00:56.408Z,78.62
2024-02-01T10:03:29.294Z,78.79
2024-02-01T10:05:58.302Z,78.24
2024-02-01T10:08:26.902Z,78.43
2024-02-01T10:10:53.780Z,77.90
2024-02-01T10:13:32.387Z,78.19
2024-02-01T10:16:01.289Z,77.73
2024-02-01T10:18:29.170Z,77.70
2024-02-01T10:21:03.394Z,77.27
2024-02-01T10:23:31.359Z,77.56
2024-02-01T10:25:58.278Z,77.63
2024-02-01T10:28:27.399Z,77.90
2024-02-01T10:30:54.303Z,78.26
2024-02-01T10:33:29.250Z,77.39
2024-02-01T10:36:00.613Z,77.86
2024-02-01T10:38:28.106Z,78.12
2024-02-01T10:41:12.418Z,78.49
2024-02-01T10:43:47.301Z,77.97
2024-02-01T10:46:19.679Z,77.20
2024-02-01T10:49:09.110Z,76.50
2024-02-01T10:51:38.759Z,76.34
2024-02-01T10:54:07.324Z,76.41
2024-02-01T10:56:34.517Z,76.28
2024-02-01T10:59:08.469Z,75.76
2024-02-01T11:01:39.949Z,75.79
2024-02-01T11:04:07.825Z,75.30
2024-02-01T11:06:35.328Z,74.05
2024-02-01T11:09:21.218Z,74.24
2024-02-01T11:11:53.649Z,74.78
2024-02-01T11:14:29.594Z,75.04
2024-02-01T11:17:03.874Z,75.14
2024-02-01T11:19:39.079Z,75.24
2024-02-01T11:22:09.064Z,75.62
2024-02-01T11:24:38.756Z,75.34
2024-02-01T11:27:20.253Z,75.72
2024-02-01T11:29:59.944Z,75.58
2024-02-01T11:32:33.559Z,75.51
2024-02-01T11:35:01.125Z,75.73
2024-02-01T11:37:29.491Z,75.77
2024-02-01T11:39:57.022Z,76.07
2024-02-01T11:42:31.925Z,75.99
2024-02-01T11:45:01.941Z,76.10
2024-02-01T11:47:30.579Z,76.30
2024-02-01T11:49:57.657Z,76.49
2024-02-01T11:52:33.681Z,76.46
2024-02-01T11:55:00.903Z,76.20
2024-02-01T11:57:30.864Z,76.14
2024-02-01T11:59:57.506Z,76.36
2024-02-01T12:02:31.982Z,76.46
2024-02-01T12:05:00.743Z,76.47
2024-02-01T12:07:27.480Z,76.64
2024-02-01T12:09:54.227Z,76.59
2024-02-01T12:12:24.631Z,76.75
2024-02-01T12:14:53.882Z,76.49
2024-02-01T12:17:25.384Z,76.67
2024-02-01T12:19:56.652Z,76.31
2024-02-01T12:22:30.392Z,76.56
2024-02-01T12:24:59.258Z,76.64
2024-02-01T12:27:25.919Z,76.45
2024-02-01T12:29:52.670Z,76.77
2024-02-01T12:32:19.242Z,76.56
2024-02-01T12:34:46.051Z,76.78
2024-02-01T12:37:13.797Z,77.11
2024-02-01T12:39:42.749Z,76.89
2024-02-01T12:42:15.674Z,76.83
2024-02-01T12:44:42.819Z,77.19
2024-02-01T12:47:09.299Z,77.22
2024-02-01T12:49:35.872Z,77.02
2024-02-01T12:52:08.283Z,76.76
2024-02-01T12:54:35.450Z,76.76
2024-02-01T12:57:03.328Z,76.70
2024-02-01T12:59:29.885Z,76.59
2024-02-01T13:01:57.624Z,76.45
2024-02-01T13:04:26.098Z,76.41
2024-02-01T13:06:53.062Z,76.08
2024-02-01T13:09:34.637Z,75.59
2024-02-01T13:12:01.678Z,75.44
2024-02-01T13:14:35.225Z,74.95
2024-02-01T13:17:11.887Z,74.87
2024-02-01T13:19:41.983Z,74.77
2024-02-01T13:22:09.061Z,74.01
2024-02-01T13:24:35.617Z,74.47
2024-02-01T13:27:02.173Z,73.46
2024-02-01T13:29:28.734Z,73.36
2024-02-01T13:31:56.643Z,73.00
2024-02-01T13:34:23.544Z,72.20
2024-02-01T13:36:50.211Z,71.96
2024-02-01T13:39:16.987Z,71.99
2024-02-01T13:41:48.061Z,71.05
2024-02-01T13:44:14.807Z,70.17
2024-02-01T13:46:41.381Z,66.45
2024-02-01T13:49:08.109Z,67.08
2024-02-01T13:51:35.587Z,67.75
2024-02-01T13:54:02.121Z,67.59
2024-02-01T13:56:28.685Z,68.66
2024-02-01T13:58:55.485Z,68.99
2024-02-01T14:01:22.256Z,69.62
2024-02-01T14:03:49.211Z,70.60
2024-02-01T14:06:15.872Z,71.02
2024-02-01T14:08:43.087Z,71.28
2024-02-01T14:11:09.786Z,71.43
2024-02-01T14:13:36.324Z,71.76
2024-02-01T14:16:02.937Z,71.60
2024-02-01T14:20:56.291Z,72.21
2024-02-01T14:23:24.241Z,72.37
2024-02-01T14:25:51.152Z,72.58
2024-02-01T14:28:20.442Z,72.43
2024-02-01T14:30:46.913Z,72.67
2024-02-01T14:33:14.903Z,72.52
2024-02-01T14:35:41.737Z,72.69
2024-02-01T14:38:08.994Z,72.59
2024-02-01T14:40:35.506Z,72.61
2024-02-01T14:43:02.476Z,72.63
2024-02-01T14:45:29.160Z,72.49
2024-02-01T14:47:55.872Z,73.02
2024-02-01T14:50:22.947Z,72.83
2024-02-01T14:52:49.420Z,73.13
2024-02-01T14:55:16.002Z,73.01
2024-02-01T14:57:45.435Z,72.67
2024-02-01T15:02:42.088Z,72.48
2024-02-01T15:05:14.999Z,72.24
2024-02-01T15:07:42.353Z,72.24
2024-02-01T15:10:15.837Z,72.12
2024-02-01T15:12:43.590Z,71.52
2024-02-01T15:15:11.308Z,71.43
2024-02-01T15:17:38.840Z,71.99
2024-02-01T15:20:08.864Z,72.05
2024-02-01T15:22:35.997Z,72.43
2024-02-01T15:25:02.734Z,72.38
2024-02-01T15:27:29.257Z,72.48
2024-02-01T15:29:56.018Z,72.54
2024-02-01T15:32:22.752Z,72.40
2024-02-01T15:34:49.567Z,72.36
2024-02-01T15:37:19.843Z,72.66
2024-02-01T15:39:46.540Z,72.82
2024-02-01T15:42:13.049Z,72.88
2024-02-01T15:44:41.228Z,72.90
2024-02-01T15:47:07.860Z,72.71
2024-02-01T15:49:36.934Z,72.64
2024-02-01T15:52:03.813Z,72.81
2024-02-01T15:54:30.450Z,72.76
2024-02-01T15:56:56.971Z,72.98
2024-02-01T15:59:23.616Z,73.04
2024-02-01T16:01:50.710Z,73.23
2024-02-01T16:04:17.358Z,73.65
2024-02-01T16:06:44.200Z,73.74
2024-02-01T16:09:13.899Z,74.04
2024-02-01T16:11:42.056Z,74.53
2024-02-01T16:14:14.215Z,74.53
2024-02-01T16:16:43.759Z,74.90
2024-02-01T16:19:31.729Z,75.10
2024-02-01T16:22:00.130Z,75.72
2024-02-01T16:24:35.936Z,75.57
2024-02-01T16:27:08.768Z,75.58
2024-02-01T16:29:44.404Z,76.10
2024-02-01T16:32:30.817Z,76.05
2024-02-01T16:34:59.009Z,76.80
2024-02-01T16:37:26.617Z,76.95
2024-02-01T16:39:58.723Z,76.29
2024-02-01T16:42:44.636Z,76.63
2024-02-01T16:45:18.647Z,77.18
2024-02-01T16:47:46.346Z,77.30
2024-02-01T16:50:13.793Z,77.46
2024-02-01T16:53:02.421Z,78.13
2024-02-01T16:55:51.545Z,77.77
2024-02-01T16:58:39.591Z,77.29
2024-02-01T17:01:09.343Z,77.80
2024-02-01T17:03:36.677Z,77.21
2024-02-01T17:06:12.455Z,77.82
2024-02-01T17:08:50.819Z,77.52
2024-02-01T17:11:31.796Z,77.60
2024-02-01T17:14:12.585Z,77.56
2024-02-01T17:17:00.893Z,77.27
2024-02-01T17:19:31.772Z,77.63
2024-02-01T17:22:00.178Z,78.41
2024-02-01T17:24:27.052Z,78.06
2024-02-01T17:26:55.076Z,78.49
2024-02-01T17:29:26.605Z,77.59
2024-02-01T17:31:53.334Z,77.30
2024-02-01T17:34:29.696Z,77.30
2024-02-01T17:36:58.153Z,77.33
2024-02-01T17:39:33.603Z,77.82
2024-02-01T17:42:04.759Z,77.58
2024-02-01T17:44:35.898Z,77.67
2024-02-01T17:47:06.984Z,77.86
2024-02-01T17:49:52.684Z,77.96
2024-02-01T17:52:47.649Z,77.31
2024-02-01T17:55:24.596Z,77.17
2024-02-01T17:57:55.930Z,77.05
2024-02-01T18:00:32.228Z,76.78
2024-02-01T18:03:02.039Z,76.90
2024-02-01T18:05:35.154Z,77.07
2024-02-01T18:08:05.854Z,77.46
2024-02-01T18:10:40.526Z,77.19
2024-02-01T18:13:07.572Z,76.85
2024-02-01T18:15:40.230Z,76.98
2024-02-01T18:18:07.224Z,76.89
2024-02-01T18:20:35.991Z,77.01
2024-02-01T18:23:02.598Z,77.14
2024-02-01T18:25:37.925Z,77.21
2024-02-01T18:28:06.349Z,77.23
2024-02-01T18:30:44.664Z,76.83
2024-02-01T18:33:13.638Z,76.76
2024-02-01T18:35:44.344Z,76.40
2024-02-01T18:38:29.977Z,76.68
2024-02-01T18:40:56.497Z,76.55
2024-02-01T18:43:26.300Z,76.69
2024-02-01T18:45:53.494Z,76.83
2024-02-01T18:48:26.365Z,76.86
2024-02-01T18:50:55.545Z,76.75
2024-02-01T18:53:54.784Z,76.97
2024-02-01T18:56:26.791Z,76.30
2024-02-01T18:58:54.491Z,76.40
2024-02-01T19:01:23.749Z,76.54
2024-02-01T19:04:16.789Z,76.53
2024-02-01T19:06:46.345Z,76.43
2024-02-01T19:09:20.069Z,76.09
2024-02-01T19:12:04.110Z,76.40
2024-02-01T19:14:49.808Z,76.89
2024-02-01T19:17:22.253Z,76.79
2024-02-01T19:19:49.407Z,76.32
2024-02-01T19:22:37.588Z,76.44
2024-02-01T19:25:05.306Z,76.76
2024-02-01T19:27:40.509Z,76.62
2024-02-01T19:30:11.777Z,76.90
2024-02-01T19:32:47.364Z,77.11
2024-02-01T19:35:18.710Z,77.05
2024-02-01T19:37:53.541Z,76.53
2024-02-01T19:40:20.823Z,76.95
2024-02-01T19:42:47.414Z,77.08
2024-02-01T19:45:14.243Z,76.89
2024-02-01T19:47:44.061Z,76.78
2024-02-01T19:50:11.971Z,77.06
2024-02-01T19:52:38.790Z,76.98
2024-02-01T19:55:07.026Z,76.94
2024-02-01T19:57:33.689Z,77.01
2024-02-01T20:00:00.856Z,77.17
2024-02-01T20:02:29.635Z,77.38
2024-02-01T20:04:58.519Z,77.09
2024-02-01T20:07:25.148Z,76.91
2024-02-01T20:09:54.725Z,77.04
2024-02-01T20:12:22.304Z,77.29
2024-02-01T20:14:53.121Z,77.18
2024-02-01T20:17:21.413Z,77.09
2024-02-01T20:19:50.079Z,76.90
2024-02-01T20:22:17.356Z,76.96
2024-02-01T20:24:45.144Z,77.24
2024-02-01T20:27:11.692Z,77.25
2024-02-01T20:29:41.198Z,77.17
2024-02-01T20:32:12.104Z,77.33
2024-02-01T20:34:40.753Z,77.25
2024-02-01T20:37:08.211Z,77.39
2024-02-01T20:39:43.791Z,77.28
2024-02-01T20:42:16.769Z,77.29
2024-02-01T20:44:43.624Z,76.88
2024-02-01T20:47:14.861Z,76.89
2024-02-01T20:49:46.057Z,76.92
2024-02-01T20:52:21.097Z,77.32
2024-02-01T20:55:11.553Z,77.04
2024-02-01T20:57:41.580Z,77.32
2024-02-01T21:00:20.297Z,77.00
2024-02-01T21:03:02.784Z,77.56
2024-02-01T21:05:52.600Z,77.57
2024-02-01T21:08:33.126Z,77.44
2024-02-01T21:11:01.427Z,77.03
2024-02-01T21:13:32.265Z,76.97
2024-02-01T21:15:59.517Z,77.08
2024-02-01T21:18:27.314Z,77.33
2024-02-01T21:21:03.128Z,77.29
2024-02-01T21:23:47.922Z,77.28
2024-02-01T21:26:21.208Z,77.32
2024-02-01T21:28:59.503Z,77.23
2024-02-01T21:31:26.049Z,77.00
2024-02-01T21:33:56.448Z,77.09
2024-02-01T21:36:23.594Z,77.28
2024-02-01T21:38:51.044Z,77.20
2024-02-01T21:41:19.995Z,77.01
2024-02-01T21:43:46.604Z,76.83
2024-02-01T21:46:17.120Z,76.65
2024-02-01T21:48:44.008Z,76.56
2024-02-01T21:51:10.675Z,76.57
2024-02-01T21:53:38.141Z,76.49
2024-02-01T21:56:05.227Z,76.92
2024-02-01T21:58:31.823Z,77.17
2024-02-01T22:00:59.924Z,77.18
2024-02-01T22:03:26.621Z,77.09
2024-02-01T22:05:53.274Z,76.84
2024-02-01T22:08:20.739Z,76.97
2024-02-01T22:10:48.745Z,76.76
2024-02-01T22:13:15.674Z,76.78
2024-02-01T22:15:42.310Z,76.82
2024-02-01T22:18:09.072Z,76.74
2024-02-01T22:20:37.029Z,77.03
2024-02-01T22:23:04.873Z,77.08
2024-02-01T22:25:31.439Z,76.94
2024-02-01T22:27:57.975Z,76.74
2024-02-01T22:30:25.240Z,76.76
2024-02-01T22:32:52.190Z,76.77
2024-02-01T22:35:18.933Z,76.71
2024-02-01T22:37:45.638Z,76.65
2024-02-01T22:40:13.229Z,76.75
2024-02-01T22:42:39.808Z,76.56
2024-02-01T22:45:07.392Z,76.59
2024-02-01T22:47:36.076Z,76.84
2024-02-01T22:50:03.523Z,76.91
2024-02-01T22:52:30.030Z,76.60
2024-02-01T22:54:56.529Z,76.70
2024-02-01T22:57:23.066Z,76.62
2024-02-01T22:59:49.972Z,76.65
2024-02-01T23:02:16.682Z,76.60
2024-02-01T23:04:44.009Z,76.84
2024-02-01T23:07:10.798Z,76.91
2024-02-01T23:09:37.538Z,76.72
2024-02-01T23:12:05.037Z,76.64
2024-02-01T23:14:31.481Z,76.88
2024-02-01T23:16:58.465Z,76.78
2024-02-01T23:19:25.124Z,77.14
2024-02-01T23:21:54.223Z,77.16
2024-02-01T23:24:21.591Z,77.15
2024-02-01T23:26:48.344Z,77.34
2024-02-01T23:29:15.928Z,77.29
2024-02-01T23:31:42.708Z,77.10
2024-02-01T23:34:10.348Z,77.14
2024-02-01T23:36:37.184Z,77.11
2024-02-01T23:39:04.164Z,76.95
2024-02-01T23:41:30.762Z,77.01
2024-02-01T23:43:57.305Z,76.77
2024-02-01T23:46:23.802Z,76.97
2024-02-01T23:48:50.397Z,77.17
2024-02-01T23:51:17.107Z,76.94
2024-02-01T23:53:43.771Z,76.94
2024-02-01T23:56:10.654Z,77.10
2024-02-01T23:58:37.490Z,77.21
